sensor_id;sensor_type;location;lat;lon;timestamp;P1;durP1;ratioP1;P2;durP2;ratioP2
46391;SDS011;32098;49.448;7.904;2022-07-04T00:00:13;1.60;;;1.30;;
46391;SDS011;32098;49.448;7.904;2022-07-04T00:02:42;5.53;;;1.65;;
46391;SDS011;32098;49.448;7.904;2022-07-04T00:05:09;3.22;;;1.73;;
46391;SDS011;32098;49.448;7.904;2022-07-04T00:07:40;3.10;;;1.45;;
46391;SDS011;32098;49.448;7.904;2022-07-04T00:10:10;4.22;;;1.60;;
46391;SDS011;32098;49.448;7.904;2022-07-04T00:12:37;2.58;;;1.42;;
46391;SDS011;32098;49.448;7.904;2022-07-04T00:15:04;2.47;;;1.42;;
46391;SDS011;32098;49.448;7.904;2022-07-04T00:17:32;2.55;;;1.50;;
46391;SDS011;32098;49.448;7.904;2022-07-04T00:20:00;3.80;;;1.50;;
46391;SDS011;32098;49.448;7.904;2022-07-04T00:22:26;1.75;;;1.27;;
46391;SDS011;32098;49.448;7.904;2022-07-04T00:24:53;2.05;;;1.70;;
46391;SDS011;32098;49.448;7.904;2022-07-04T00:27:20;4.55;;;1.50;;
46391;SDS011;32098;49.448;7.904;2022-07-04T00:29:46;2.60;;;1.50;;
46391;SDS011;32098;49.448;7.904;2022-07-04T00:32:13;3.22;;;1.60;;
46391;SDS011;32098;49.448;7.904;2022-07-04T00:34:39;2.33;;;1.67;;
46391;SDS011;32098;49.448;7.904;2022-07-04T00:37:06;12.30;;;1.80;;
46391;SDS011;32098;49.448;7.904;2022-07-04T00:39:32;1.98;;;1.58;;
46391;SDS011;32098;49.448;7.904;2022-07-04T00:42:06;1.98;;;1.50;;
46391;SDS011;32098;49.448;7.904;2022-07-04T00:44:33;3.40;;;1.70;;
46391;SDS011;32098;49.448;7.904;2022-07-04T00:47:03;3.70;;;1.90;;
46391;SDS011;32098;49.448;7.904;2022-07-04T00:49:30;2.38;;;1.50;;
46391;SDS011;32098;49.448;7.904;2022-07-04T00:51:57;2.40;;;1.70;;
46391;SDS011;32098;49.448;7.904;2022-07-04T00:54:25;2.67;;;1.75;;
46391;SDS011;32098;49.448;7.904;2022-07-04T00:56:54;3.08;;;1.40;;
46391;SDS011;32098;49.448;7.904;2022-07-04T00:59:22;2.88;;;1.65;;
46391;SDS011;32098;49.448;7.904;2022-07-04T01:01:49;2.38;;;1.77;;
46391;SDS011;32098;49.448;7.904;2022-07-04T01:04:17;3.58;;;1.77;;
46391;SDS011;32098;49.448;7.904;2022-07-04T01:06:44;1.80;;;1.50;;
46391;SDS011;32098;49.448;7.904;2022-07-04T01:09:11;2.10;;;1.90;;
46391;SDS011;32098;49.448;7.904;2022-07-04T01:11:39;3.67;;;1.83;;
46391;SDS011;32098;49.448;7.904;2022-07-04T01:14:05;1.60;;;1.50;;
46391;SDS011;32098;49.448;7.904;2022-07-04T01:16:32;2.45;;;1.95;;
46391;SDS011;32098;49.448;7.904;2022-07-04T01:18:59;1.83;;;1.60;;
46391;SDS011;32098;49.448;7.904;2022-07-04T01:21:26;3.22;;;1.58;;
46391;SDS011;32098;49.448;7.904;2022-07-04T01:23:53;2.65;;;1.58;;
46391;SDS011;32098;49.448;7.904;2022-07-04T01:26:19;1.85;;;1.60;;
46391;SDS011;32098;49.448;7.904;2022-07-04T01:28:46;1.98;;;1.83;;
46391;SDS011;32098;49.448;7.904;2022-07-04T01:31:12;2.97;;;1.90;;
46391;SDS011;32098;49.448;7.904;2022-07-04T01:33:39;2.72;;;1.80;;
46391;SDS011;32098;49.448;7.904;2022-07-04T01:36:06;2.70;;;2.00;;
46391;SDS011;32098;49.448;7.904;2022-07-04T01:38:32;2.28;;;1.80;;
46391;SDS011;32098;49.448;7.904;2022-07-04T01:40:59;1.75;;;1.65;;
46391;SDS011;32098;49.448;7.904;2022-07-04T01:43:25;2.33;;;1.90;;
46391;SDS011;32098;49.448;7.904;2022-07-04T01:45:52;2.90;;;1.70;;
46391;SDS011;32098;49.448;7.904;2022-07-04T01:48:18;2.80;;;1.60;;
46391;SDS011;32098;49.448;7.904;2022-07-04T01:50:45;2.40;;;1.70;;
46391;SDS011;32098;49.448;7.904;2022-07-04T01:53:11;1.75;;;1.63;;
46391;SDS011;32098;49.448;7.904;2022-07-04T01:55:38;3.67;;;1.92;;
46391;SDS011;32098;49.448;7.904;2022-07-04T01:58:04;3.20;;;1.55;;
46391;SDS011;32098;49.448;7.904;2022-07-04T02:00:31;2.22;;;1.98;;
46391;SDS011;32098;49.448;7.904;2022-07-04T02:03:16;3.03;;;1.55;;
46391;SDS011;32098;49.448;7.904;2022-07-04T02:05:43;1.90;;;1.80;;
46391;SDS011;32098;49.448;7.904;2022-07-04T02:08:09;3.53;;;1.88;;
46391;SDS011;32098;49.448;7.904;2022-07-04T02:10:36;3.53;;;1.80;;
46391;SDS011;32098;49.448;7.904;2022-07-04T02:13:03;3.58;;;1.88;;
46391;SDS011;32098;49.448;7.904;2022-07-04T02:15:31;1.92;;;1.75;;
46391;SDS011;32098;49.448;7.904;2022-07-04T02:18:00;3.90;;;1.90;;
46391;SDS011;32098;49.448;7.904;2022-07-04T02:20:27;2.20;;;1.58;;
46391;SDS011;32098;49.448;7.904;2022-07-04T02:22:54;3.85;;;2.10;;
46391;SDS011;32098;49.448;7.904;2022-07-04T02:25:20;3.83;;;1.60;;
46391;SDS011;32098;49.448;7.904;2022-07-04T02:27:53;1.75;;;1.65;;
46391;SDS011;32098;49.448;7.904;2022-07-04T02:30:19;3.33;;;1.90;;
46391;SDS011;32098;49.448;7.904;2022-07-04T02:32:46;3.22;;;1.90;;
46391;SDS011;32098;49.448;7.904;2022-07-04T02:35:13;3.08;;;1.70;;
46391;SDS011;32098;49.448;7.904;2022-07-04T02:37:40;3.72;;;2.20;;
46391;SDS011;32098;49.448;7.904;2022-07-04T02:40:07;2.38;;;1.80;;
46391;SDS011;32098;49.448;7.904;2022-07-04T02:42:34;2.05;;;1.60;;
46391;SDS011;32098;49.448;7.904;2022-07-04T02:45:02;2.42;;;1.63;;
46391;SDS011;32098;49.448;7.904;2022-07-04T02:47:30;2.85;;;1.75;;
46391;SDS011;32098;49.448;7.904;2022-07-04T02:49:56;1.55;;;1.38;;
46391;SDS011;32098;49.448;7.904;2022-07-04T02:52:23;2.10;;;1.80;;
46391;SDS011;32098;49.448;7.904;2022-07-04T02:54:49;2.25;;;1.70;;
46391;SDS011;32098;49.448;7.904;2022-07-04T02:57:18;2.65;;;1.90;;
46391;SDS011;32098;49.448;7.904;2022-07-04T02:59:45;2.53;;;2.00;;
46391;SDS011;32098;49.448;7.904;2022-07-04T03:02:12;2.05;;;1.75;;
46391;SDS011;32098;49.448;7.904;2022-07-04T03:04:38;3.28;;;1.67;;
46391;SDS011;32098;49.448;7.904;2022-07-04T03:07:06;3.47;;;1.70;;
46391;SDS011;32098;49.448;7.904;2022-07-04T03:09:34;1.85;;;1.75;;
46391;SDS011;32098;49.448;7.904;2022-07-04T03:12:01;2.53;;;1.88;;
46391;SDS011;32098;49.448;7.904;2022-07-04T03:14:28;3.40;;;1.70;;
46391;SDS011;32098;49.448;7.904;2022-07-04T03:16:54;2.63;;;1.60;;
46391;SDS011;32098;49.448;7.904;2022-07-04T03:19:21;3.75;;;2.03;;
46391;SDS011;32098;49.448;7.904;2022-07-04T03:21:48;2.22;;;2.10;;
46391;SDS011;32098;49.448;7.904;2022-07-04T03:24:14;2.30;;;1.90;;
46391;SDS011;32098;49.448;7.904;2022-07-04T03:26:41;3.80;;;2.20;;
46391;SDS011;32098;49.448;7.904;2022-07-04T03:29:07;3.07;;;1.90;;
46391;SDS011;32098;49.448;7.904;2022-07-04T03:31:34;2.23;;;2.03;;
46391;SDS011;32098;49.448;7.904;2022-07-04T03:34:00;2.47;;;2.20;;
46391;SDS011;32098;49.448;7.904;2022-07-04T03:36:27;2.97;;;2.20;;
46391;SDS011;32098;49.448;7.904;2022-07-04T03:38:53;3.83;;;2.27;;
46391;SDS011;32098;49.448;7.904;2022-07-04T03:41:20;2.63;;;2.23;;
46391;SDS011;32098;49.448;7.904;2022-07-04T03:43:46;3.20;;;1.90;;
46391;SDS011;32098;49.448;7.904;2022-07-04T03:46:13;2.53;;;1.70;;
46391;SDS011;32098;49.448;7.904;2022-07-04T03:48:39;4.17;;;1.70;;
46391;SDS011;32098;49.448;7.904;2022-07-04T03:51:10;3.10;;;2.00;;
46391;SDS011;32098;49.448;7.904;2022-07-04T03:53:38;2.90;;;1.90;;
46391;SDS011;32098;49.448;7.904;2022-07-04T03:56:04;7.47;;;2.15;;
46391;SDS011;32098;49.448;7.904;2022-07-04T03:58:31;3.43;;;2.13;;
46391;SDS011;32098;49.448;7.904;2022-07-04T04:00:57;2.50;;;2.00;;
46391;SDS011;32098;49.448;7.904;2022-07-04T04:03:24;4.37;;;2.23;;
46391;SDS011;32098;49.448;7.904;2022-07-04T04:06:10;2.08;;;1.85;;
46391;SDS011;32098;49.448;7.904;2022-07-04T04:08:36;2.58;;;2.05;;
46391;SDS011;32098;49.448;7.904;2022-07-04T04:11:03;2.75;;;1.80;;
46391;SDS011;32098;49.448;7.904;2022-07-04T04:13:29;1.92;;;1.80;;
46391;SDS011;32098;49.448;7.904;2022-07-04T04:15:56;3.53;;;2.30;;
46391;SDS011;32098;49.448;7.904;2022-07-04T04:18:22;2.58;;;1.90;;
46391;SDS011;32098;49.448;7.904;2022-07-04T04:20:49;2.67;;;2.00;;
46391;SDS011;32098;49.448;7.904;2022-07-04T04:23:16;3.45;;;2.20;;
46391;SDS011;32098;49.448;7.904;2022-07-04T04:25:42;1.90;;;1.63;;
46391;SDS011;32098;49.448;7.904;2022-07-04T04:28:09;2.65;;;1.90;;
46391;SDS011;32098;49.448;7.904;2022-07-04T04:30:35;4.80;;;1.77;;
46391;SDS011;32098;49.448;7.904;2022-07-04T04:33:02;3.00;;;2.20;;
46391;SDS011;32098;49.448;7.904;2022-07-04T04:35:28;2.13;;;1.55;;
46391;SDS011;32098;49.448;7.904;2022-07-04T04:37:55;2.85;;;1.70;;
46391;SDS011;32098;49.448;7.904;2022-07-04T04:40:21;3.05;;;1.83;;
46391;SDS011;32098;49.448;7.904;2022-07-04T04:42:48;2.15;;;1.92;;
46391;SDS011;32098;49.448;7.904;2022-07-04T04:45:14;1.63;;;1.52;;
46391;SDS011;32098;49.448;7.904;2022-07-04T04:47:41;3.05;;;1.90;;
46391;SDS011;32098;49.448;7.904;2022-07-04T04:50:09;1.90;;;1.80;;
46391;SDS011;32098;49.448;7.904;2022-07-04T04:52:38;3.20;;;1.83;;
46391;SDS011;32098;49.448;7.904;2022-07-04T04:55:05;3.50;;;1.95;;
46391;SDS011;32098;49.448;7.904;2022-07-04T04:57:31;3.42;;;1.98;;
46391;SDS011;32098;49.448;7.904;2022-07-04T04:59:58;2.95;;;2.28;;
46391;SDS011;32098;49.448;7.904;2022-07-04T05:02:24;3.83;;;2.08;;
46391;SDS011;32098;49.448;7.904;2022-07-04T05:04:51;5.15;;;2.00;;
46391;SDS011;32098;49.448;7.904;2022-07-04T05:07:17;3.40;;;1.80;;
46391;SDS011;32098;49.448;7.904;2022-07-04T05:09:44;3.30;;;1.88;;
46391;SDS011;32098;49.448;7.904;2022-07-04T05:12:11;1.77;;;1.65;;
46391;SDS011;32098;49.448;7.904;2022-07-04T05:14:37;2.17;;;1.58;;
46391;SDS011;32098;49.448;7.904;2022-07-04T05:17:04;6.95;;;1.80;;
46391;SDS011;32098;49.448;7.904;2022-07-04T05:19:30;3.85;;;1.52;;
46391;SDS011;32098;49.448;7.904;2022-07-04T05:21:57;2.35;;;1.45;;
46391;SDS011;32098;49.448;7.904;2022-07-04T05:24:23;1.63;;;1.52;;
46391;SDS011;32098;49.448;7.904;2022-07-04T05:26:50;3.22;;;1.60;;
46391;SDS011;32098;49.448;7.904;2022-07-04T05:29:23;1.70;;;1.52;;
46391;SDS011;32098;49.448;7.904;2022-07-04T05:31:50;4.82;;;1.90;;
46391;SDS011;32098;49.448;7.904;2022-07-04T05:34:16;2.22;;;1.45;;
46391;SDS011;32098;49.448;7.904;2022-07-04T05:36:45;4.95;;;1.65;;
46391;SDS011;32098;49.448;7.904;2022-07-04T05:39:11;2.60;;;1.88;;
46391;SDS011;32098;49.448;7.904;2022-07-04T05:41:38;3.42;;;1.55;;
46391;SDS011;32098;49.448;7.904;2022-07-04T05:44:05;4.53;;;1.85;;
46391;SDS011;32098;49.448;7.904;2022-07-04T05:46:31;2.67;;;1.60;;
46391;SDS011;32098;49.448;7.904;2022-07-04T05:48:58;2.05;;;1.60;;
46391;SDS011;32098;49.448;7.904;2022-07-04T05:51:25;2.85;;;1.38;;
46391;SDS011;32098;49.448;7.904;2022-07-04T05:53:51;3.35;;;1.60;;
46391;SDS011;32098;49.448;7.904;2022-07-04T05:56:18;2.42;;;1.52;;
46391;SDS011;32098;49.448;7.904;2022-07-04T05:58:45;2.58;;;1.50;;
46391;SDS011;32098;49.448;7.904;2022-07-04T06:01:11;3.40;;;1.52;;
46391;SDS011;32098;49.448;7.904;2022-07-04T06:03:40;2.17;;;1.40;;
46391;SDS011;32098;49.448;7.904;2022-07-04T06:06:06;3.22;;;1.40;;
46391;SDS011;32098;49.448;7.904;2022-07-04T06:08:33;4.13;;;2.13;;
46391;SDS011;32098;49.448;7.904;2022-07-04T06:10:59;3.90;;;1.60;;
46391;SDS011;32098;49.448;7.904;2022-07-04T06:13:26;3.28;;;1.50;;
46391;SDS011;32098;49.448;7.904;2022-07-04T06:15:54;3.63;;;1.65;;
46391;SDS011;32098;49.448;7.904;2022-07-04T06:18:20;3.50;;;1.27;;
46391;SDS011;32098;49.448;7.904;2022-07-04T06:20:47;2.20;;;1.67;;
46391;SDS011;32098;49.448;7.904;2022-07-04T06:23:13;5.53;;;1.58;;
46391;SDS011;32098;49.448;7.904;2022-07-04T06:25:40;2.03;;;1.20;;
46391;SDS011;32098;49.448;7.904;2022-07-04T06:28:06;2.00;;;1.23;;
46391;SDS011;32098;49.448;7.904;2022-07-04T06:30:50;1.98;;;1.23;;
46391;SDS011;32098;49.448;7.904;2022-07-04T06:33:17;2.05;;;1.20;;
46391;SDS011;32098;49.448;7.904;2022-07-04T06:35:45;5.72;;;1.52;;
46391;SDS011;32098;49.448;7.904;2022-07-04T06:38:12;1.42;;;1.30;;
46391;SDS011;32098;49.448;7.904;2022-07-04T06:40:40;4.00;;;1.50;;
46391;SDS011;32098;49.448;7.904;2022-07-04T06:43:07;2.70;;;1.75;;
46391;SDS011;32098;49.448;7.904;2022-07-04T06:45:34;1.73;;;1.10;;
46391;SDS011;32098;49.448;7.904;2022-07-04T06:48:02;2.58;;;1.55;;
46391;SDS011;32098;49.448;7.904;2022-07-04T06:50:31;1.73;;;1.25;;
46391;SDS011;32098;49.448;7.904;2022-07-04T06:53:06;2.20;;;1.40;;
46391;SDS011;32098;49.448;7.904;2022-07-04T06:55:34;2.67;;;1.30;;
46391;SDS011;32098;49.448;7.904;2022-07-04T06:58:02;5.43;;;1.50;;
46391;SDS011;32098;49.448;7.904;2022-07-04T07:00:29;3.10;;;1.25;;
46391;SDS011;32098;49.448;7.904;2022-07-04T07:02:59;3.80;;;1.10;;
46391;SDS011;32098;49.448;7.904;2022-07-04T07:05:26;3.00;;;1.30;;
46391;SDS011;32098;49.448;7.904;2022-07-04T07:08:13;2.83;;;1.10;;
46391;SDS011;32098;49.448;7.904;2022-07-04T07:10:40;1.73;;;1.30;;
46391;SDS011;32098;49.448;7.904;2022-07-04T07:13:07;3.75;;;1.30;;
46391;SDS011;32098;49.448;7.904;2022-07-04T07:15:34;1.73;;;1.10;;
46391;SDS011;32098;49.448;7.904;2022-07-04T07:18:02;3.08;;;1.20;;
46391;SDS011;32098;49.448;7.904;2022-07-04T07:20:29;2.83;;;1.40;;
46391;SDS011;32098;49.448;7.904;2022-07-04T07:22:56;4.13;;;1.33;;
46391;SDS011;32098;49.448;7.904;2022-07-04T07:25:22;1.75;;;1.00;;
46391;SDS011;32098;49.448;7.904;2022-07-04T07:27:49;6.47;;;1.40;;
46391;SDS011;32098;49.448;7.904;2022-07-04T07:30:15;2.80;;;1.30;;
46391;SDS011;32098;49.448;7.904;2022-07-04T07:32:42;1.70;;;1.00;;
46391;SDS011;32098;49.448;7.904;2022-07-04T07:35:09;2.28;;;0.93;;
46391;SDS011;32098;49.448;7.904;2022-07-04T07:37:36;1.70;;;0.95;;
46391;SDS011;32098;49.448;7.904;2022-07-04T07:40:02;1.80;;;1.10;;
46391;SDS011;32098;49.448;7.904;2022-07-04T07:42:29;3.47;;;1.00;;
46391;SDS011;32098;49.448;7.904;2022-07-04T07:44:56;2.53;;;1.15;;
46391;SDS011;32098;49.448;7.904;2022-07-04T07:47:23;1.25;;;1.00;;
46391;SDS011;32098;49.448;7.904;2022-07-04T07:49:50;2.00;;;1.00;;
46391;SDS011;32098;49.448;7.904;2022-07-04T07:52:16;1.70;;;1.17;;
46391;SDS011;32098;49.448;7.904;2022-07-04T07:54:43;3.40;;;0.90;;
46391;SDS011;32098;49.448;7.904;2022-07-04T07:57:25;5.53;;;1.13;;
46391;SDS011;32098;49.448;7.904;2022-07-04T07:59:51;2.97;;;0.93;;
46391;SDS011;32098;49.448;7.904;2022-07-04T08:02:18;1.00;;;0.90;;
46391;SDS011;32098;49.448;7.904;2022-07-04T08:04:44;1.35;;;1.00;;
46391;SDS011;32098;49.448;7.904;2022-07-04T08:07:11;1.52;;;0.68;;
46391;SDS011;32098;49.448;7.904;2022-07-04T08:09:48;1.92;;;1.00;;
46391;SDS011;32098;49.448;7.904;2022-07-04T08:12:15;1.55;;;1.10;;
46391;SDS011;32098;49.448;7.904;2022-07-04T08:14:41;1.48;;;1.05;;
46391;SDS011;32098;49.448;7.904;2022-07-04T08:17:08;3.58;;;1.25;;
46391;SDS011;32098;49.448;7.904;2022-07-04T08:19:37;1.13;;;0.77;;
46391;SDS011;32098;49.448;7.904;2022-07-04T08:22:04;3.83;;;1.00;;
46391;SDS011;32098;49.448;7.904;2022-07-04T08:24:40;1.23;;;0.88;;
46391;SDS011;32098;49.448;7.904;2022-07-04T08:27:06;2.38;;;0.90;;
46391;SDS011;32098;49.448;7.904;2022-07-04T08:29:33;11.63;;;1.90;;
46391;SDS011;32098;49.448;7.904;2022-07-04T08:32:01;3.92;;;1.17;;
46391;SDS011;32098;49.448;7.904;2022-07-04T08:34:28;8.57;;;1.60;;
46391;SDS011;32098;49.448;7.904;2022-07-04T08:36:54;2.65;;;1.20;;
46391;SDS011;32098;49.448;7.904;2022-07-04T08:39:21;3.15;;;1.25;;
46391;SDS011;32098;49.448;7.904;2022-07-04T08:41:48;8.32;;;1.58;;
46391;SDS011;32098;49.448;7.904;2022-07-04T08:44:18;2.50;;;1.20;;
46391;SDS011;32098;49.448;7.904;2022-07-04T08:46:47;1.45;;;0.85;;
46391;SDS011;32098;49.448;7.904;2022-07-04T08:49:20;3.92;;;1.23;;
46391;SDS011;32098;49.448;7.904;2022-07-04T08:54:24;4.80;;;1.20;;
46391;SDS011;32098;49.448;7.904;2022-07-04T08:57:10;12.85;;;2.17;;
46391;SDS011;32098;49.448;7.904;2022-07-04T08:59:56;5.55;;;0.90;;
46391;SDS011;32098;49.448;7.904;2022-07-04T09:02:25;2.03;;;0.80;;
46391;SDS011;32098;49.448;7.904;2022-07-04T09:04:54;2.90;;;1.10;;
46391;SDS011;32098;49.448;7.904;2022-07-04T09:07:21;2.58;;;1.02;;
46391;SDS011;32098;49.448;7.904;2022-07-04T09:09:48;0.98;;;0.77;;
46391;SDS011;32098;49.448;7.904;2022-07-04T09:12:18;0.90;;;0.73;;
46391;SDS011;32098;49.448;7.904;2022-07-04T09:14:44;4.63;;;1.25;;
46391;SDS011;32098;49.448;7.904;2022-07-04T09:17:11;1.35;;;0.90;;
46391;SDS011;32098;49.448;7.904;2022-07-04T09:19:38;2.38;;;0.77;;
46391;SDS011;32098;49.448;7.904;2022-07-04T09:22:09;2.05;;;0.90;;
46391;SDS011;32098;49.448;7.904;2022-07-04T09:27:12;2.63;;;0.80;;
46391;SDS011;32098;49.448;7.904;2022-07-04T09:29:56;1.15;;;0.75;;
46391;SDS011;32098;49.448;7.904;2022-07-04T09:35:20;2.65;;;0.90;;
46391;SDS011;32098;49.448;7.904;2022-07-04T09:37:50;2.20;;;0.93;;
46391;SDS011;32098;49.448;7.904;2022-07-04T09:43:21;1.70;;;0.63;;
46391;SDS011;32098;49.448;7.904;2022-07-04T09:45:53;1.20;;;0.88;;
46391;SDS011;32098;49.448;7.904;2022-07-04T09:48:21;2.08;;;0.90;;
46391;SDS011;32098;49.448;7.904;2022-07-04T09:50:48;1.85;;;0.68;;
46391;SDS011;32098;49.448;7.904;2022-07-04T09:53:14;2.47;;;0.68;;
46391;SDS011;32098;49.448;7.904;2022-07-04T09:55:41;1.70;;;0.70;;
46391;SDS011;32098;49.448;7.904;2022-07-04T09:58:08;2.08;;;0.73;;
46391;SDS011;32098;49.448;7.904;2022-07-04T10:05:45;3.22;;;0.80;;
46391;SDS011;32098;49.448;7.904;2022-07-04T10:08:20;1.02;;;0.77;;
46391;SDS011;32098;49.448;7.904;2022-07-04T10:10:47;3.92;;;0.70;;
46391;SDS011;32098;49.448;7.904;2022-07-04T10:13:13;2.25;;;0.63;;
46391;SDS011;32098;49.448;7.904;2022-07-04T10:15:41;1.25;;;0.85;;
46391;SDS011;32098;49.448;7.904;2022-07-04T10:18:09;2.28;;;0.75;;
46391;SDS011;32098;49.448;7.904;2022-07-04T10:20:36;2.63;;;0.80;;
46391;SDS011;32098;49.448;7.904;2022-07-04T10:23:03;2.42;;;0.80;;
46391;SDS011;32098;49.448;7.904;2022-07-04T10:25:29;2.10;;;0.60;;
46391;SDS011;32098;49.448;7.904;2022-07-04T10:27:56;1.13;;;0.60;;
46391;SDS011;32098;49.448;7.904;2022-07-04T10:30:27;1.15;;;0.68;;
46391;SDS011;32098;49.448;7.904;2022-07-04T10:32:56;1.35;;;0.52;;
46391;SDS011;32098;49.448;7.904;2022-07-04T10:38:30;2.10;;;0.82;;
46391;SDS011;32098;49.448;7.904;2022-07-04T10:48:49;3.80;;;0.95;;
46391;SDS011;32098;49.448;7.904;2022-07-04T10:59:17;0.95;;;0.63;;
46391;SDS011;32098;49.448;7.904;2022-07-04T11:01:53;1.23;;;0.90;;
46391;SDS011;32098;49.448;7.904;2022-07-04T11:04:53;2.85;;;0.70;;
46391;SDS011;32098;49.448;7.904;2022-07-04T11:17:52;0.85;;;0.52;;
46391;SDS011;32098;49.448;7.904;2022-07-04T11:20:20;0.98;;;0.70;;
46391;SDS011;32098;49.448;7.904;2022-07-04T11:22:48;0.43;;;0.43;;
46391;SDS011;32098;49.448;7.904;2022-07-04T11:25:15;1.10;;;0.70;;
46391;SDS011;32098;49.448;7.904;2022-07-04T11:27:42;1.10;;;0.68;;
46391;SDS011;32098;49.448;7.904;2022-07-04T11:30:09;0.85;;;0.60;;
46391;SDS011;32098;49.448;7.904;2022-07-04T11:32:41;1.13;;;0.60;;
46391;SDS011;32098;49.448;7.904;2022-07-04T11:35:08;1.85;;;0.98;;
46391;SDS011;32098;49.448;7.904;2022-07-04T11:37:35;2.47;;;0.90;;
46391;SDS011;32098;49.448;7.904;2022-07-04T11:40:02;1.10;;;0.90;;
46391;SDS011;32098;49.448;7.904;2022-07-04T11:43:07;0.80;;;0.70;;
46391;SDS011;32098;49.448;7.904;2022-07-04T11:45:52;1.00;;;0.65;;
46391;SDS011;32098;49.448;7.904;2022-07-04T11:48:23;2.30;;;0.80;;
46391;SDS011;32098;49.448;7.904;2022-07-04T11:50:53;0.95;;;0.70;;
46391;SDS011;32098;49.448;7.904;2022-07-04T11:53:20;2.15;;;0.88;;
46391;SDS011;32098;49.448;7.904;2022-07-04T11:55:53;1.63;;;0.65;;
46391;SDS011;32098;49.448;7.904;2022-07-04T11:58:22;1.55;;;1.00;;
46391;SDS011;32098;49.448;7.904;2022-07-04T12:00:49;2.20;;;0.70;;
46391;SDS011;32098;49.448;7.904;2022-07-04T12:03:16;1.20;;;0.70;;
46391;SDS011;32098;49.448;7.904;2022-07-04T12:05:42;1.77;;;0.65;;
46391;SDS011;32098;49.448;7.904;2022-07-04T12:08:10;1.40;;;0.50;;
46391;SDS011;32098;49.448;7.904;2022-07-04T12:10:52;1.60;;;0.60;;
46391;SDS011;32098;49.448;7.904;2022-07-04T12:13:19;1.17;;;0.68;;
46391;SDS011;32098;49.448;7.904;2022-07-04T12:15:47;1.80;;;0.82;;
46391;SDS011;32098;49.448;7.904;2022-07-04T12:18:26;1.75;;;0.65;;
46391;SDS011;32098;49.448;7.904;2022-07-04T12:21:14;1.25;;;0.70;;
46391;SDS011;32098;49.448;7.904;2022-07-04T12:23:51;1.08;;;0.70;;
46391;SDS011;32098;49.448;7.904;2022-07-04T12:26:43;1.50;;;0.90;;
46391;SDS011;32098;49.448;7.904;2022-07-04T12:29:19;1.70;;;0.63;;
46391;SDS011;32098;49.448;7.904;2022-07-04T12:31:50;1.42;;;0.60;;
46391;SDS011;32098;49.448;7.904;2022-07-04T12:34:19;2.88;;;0.77;;
46391;SDS011;32098;49.448;7.904;2022-07-04T12:36:54;0.65;;;0.50;;
46391;SDS011;32098;49.448;7.904;2022-07-04T12:42:04;1.75;;;1.25;;
46391;SDS011;32098;49.448;7.904;2022-07-04T12:44:34;1.92;;;1.50;;
46391;SDS011;32098;49.448;7.904;2022-07-04T12:47:02;1.60;;;0.70;;
46391;SDS011;32098;49.448;7.904;2022-07-04T12:49:47;1.33;;;0.80;;
46391;SDS011;32098;49.448;7.904;2022-07-04T12:52:14;1.17;;;0.70;;
46391;SDS011;32098;49.448;7.904;2022-07-04T12:54:43;1.45;;;0.60;;
46391;SDS011;32098;49.448;7.904;2022-07-04T12:57:16;0.60;;;0.60;;
46391;SDS011;32098;49.448;7.904;2022-07-04T12:59:44;0.82;;;0.63;;
46391;SDS011;32098;49.448;7.904;2022-07-04T13:02:11;2.53;;;0.70;;
46391;SDS011;32098;49.448;7.904;2022-07-04T13:04:39;1.75;;;0.60;;
46391;SDS011;32098;49.448;7.904;2022-07-04T13:07:15;0.75;;;0.45;;
46391;SDS011;32098;49.448;7.904;2022-07-04T13:09:44;0.80;;;0.60;;
46391;SDS011;32098;49.448;7.904;2022-07-04T13:12:12;1.95;;;0.80;;
46391;SDS011;32098;49.448;7.904;2022-07-04T13:14:52;0.80;;;0.60;;
46391;SDS011;32098;49.448;7.904;2022-07-04T13:17:19;1.55;;;0.88;;
46391;SDS011;32098;49.448;7.904;2022-07-04T13:19:46;1.67;;;0.52;;
46391;SDS011;32098;49.448;7.904;2022-07-04T13:22:13;1.20;;;0.68;;
46391;SDS011;32098;49.448;7.904;2022-07-04T13:24:39;1.48;;;0.57;;
46391;SDS011;32098;49.448;7.904;2022-07-04T13:27:06;1.05;;;0.50;;
46391;SDS011;32098;49.448;7.904;2022-07-04T13:29:33;1.70;;;0.77;;
46391;SDS011;32098;49.448;7.904;2022-07-04T13:31:59;2.58;;;0.65;;
46391;SDS011;32098;49.448;7.904;2022-07-04T13:34:26;1.75;;;0.60;;
46391;SDS011;32098;49.448;7.904;2022-07-04T13:36:52;4.13;;;1.02;;
46391;SDS011;32098;49.448;7.904;2022-07-04T13:39:21;0.52;;;0.50;;
46391;SDS011;32098;49.448;7.904;2022-07-04T13:42:09;1.75;;;0.70;;
46391;SDS011;32098;49.448;7.904;2022-07-04T13:44:35;2.08;;;0.68;;
46391;SDS011;32098;49.448;7.904;2022-07-04T13:47:04;1.85;;;0.57;;
46391;SDS011;32098;49.448;7.904;2022-07-04T13:49:32;2.00;;;0.68;;
46391;SDS011;32098;49.448;7.904;2022-07-04T13:51:58;0.60;;;0.60;;
46391;SDS011;32098;49.448;7.904;2022-07-04T13:54:25;1.15;;;0.85;;
46391;SDS011;32098;49.448;7.904;2022-07-04T13:56:52;0.85;;;0.63;;
46391;SDS011;32098;49.448;7.904;2022-07-04T13:59:19;0.57;;;0.47;;
46391;SDS011;32098;49.448;7.904;2022-07-04T14:01:45;2.05;;;0.60;;
46391;SDS011;32098;49.448;7.904;2022-07-04T14:04:13;1.23;;;0.60;;
46391;SDS011;32098;49.448;7.904;2022-07-04T14:06:40;1.00;;;0.73;;
46391;SDS011;32098;49.448;7.904;2022-07-04T14:09:07;1.15;;;0.88;;
46391;SDS011;32098;49.448;7.904;2022-07-04T14:11:34;1.42;;;0.60;;
46391;SDS011;32098;49.448;7.904;2022-07-04T14:14:00;1.20;;;0.60;;
46391;SDS011;32098;49.448;7.904;2022-07-04T14:16:26;1.70;;;0.77;;
46391;SDS011;32098;49.448;7.904;2022-07-04T14:18:53;1.17;;;0.75;;
46391;SDS011;32098;49.448;7.904;2022-07-04T14:21:20;1.38;;;0.70;;
46391;SDS011;32098;49.448;7.904;2022-07-04T14:23:47;2.45;;;0.90;;
46391;SDS011;32098;49.448;7.904;2022-07-04T14:26:15;1.50;;;0.60;;
46391;SDS011;32098;49.448;7.904;2022-07-04T14:28:42;2.08;;;0.68;;
46391;SDS011;32098;49.448;7.904;2022-07-04T14:31:13;1.98;;;0.85;;
46391;SDS011;32098;49.448;7.904;2022-07-04T14:33:39;1.42;;;0.63;;
46391;SDS011;32098;49.448;7.904;2022-07-04T14:36:06;0.90;;;0.60;;
46391;SDS011;32098;49.448;7.904;2022-07-04T14:38:34;2.10;;;0.70;;
46391;SDS011;32098;49.448;7.904;2022-07-04T14:41:01;1.70;;;0.80;;
46391;SDS011;32098;49.448;7.904;2022-07-04T14:43:37;0.90;;;0.60;;
46391;SDS011;32098;49.448;7.904;2022-07-04T14:46:09;0.50;;;0.50;;
46391;SDS011;32098;49.448;7.904;2022-07-04T14:48:36;2.63;;;0.85;;
46391;SDS011;32098;49.448;7.904;2022-07-04T14:51:04;2.38;;;0.70;;
46391;SDS011;32098;49.448;7.904;2022-07-04T14:53:30;1.13;;;0.50;;
46391;SDS011;32098;49.448;7.904;2022-07-04T14:55:57;1.60;;;0.70;;
46391;SDS011;32098;49.448;7.904;2022-07-04T14:58:23;2.08;;;0.82;;
46391;SDS011;32098;49.448;7.904;2022-07-04T15:00:50;4.38;;;1.15;;
46391;SDS011;32098;49.448;7.904;2022-07-04T15:03:16;2.25;;;0.73;;
46391;SDS011;32098;49.448;7.904;2022-07-04T15:05:43;1.38;;;0.70;;
46391;SDS011;32098;49.448;7.904;2022-07-04T15:08:10;0.98;;;0.60;;
46391;SDS011;32098;49.448;7.904;2022-07-04T15:10:37;1.55;;;0.50;;
46391;SDS011;32098;49.448;7.904;2022-07-04T15:13:24;0.55;;;0.50;;
46391;SDS011;32098;49.448;7.904;2022-07-04T15:15:50;1.17;;;0.50;;
46391;SDS011;32098;49.448;7.904;2022-07-04T15:18:37;2.28;;;0.70;;
46391;SDS011;32098;49.448;7.904;2022-07-04T15:21:03;2.70;;;0.65;;
46391;SDS011;32098;49.448;7.904;2022-07-04T15:23:49;2.22;;;0.68;;
46391;SDS011;32098;49.448;7.904;2022-07-04T15:26:34;1.05;;;0.60;;
46391;SDS011;32098;49.448;7.904;2022-07-04T15:29:01;1.42;;;0.60;;
46391;SDS011;32098;49.448;7.904;2022-07-04T15:31:27;2.60;;;0.60;;
46391;SDS011;32098;49.448;7.904;2022-07-04T15:33:54;3.60;;;0.57;;
46391;SDS011;32098;49.448;7.904;2022-07-04T15:36:21;2.65;;;0.60;;
46391;SDS011;32098;49.448;7.904;2022-07-04T15:38:48;0.65;;;0.63;;
46391;SDS011;32098;49.448;7.904;2022-07-04T15:41:14;1.17;;;0.60;;
46391;SDS011;32098;49.448;7.904;2022-07-04T15:43:42;2.80;;;0.63;;